Time;durP1;ratioP1;P1;durP2;ratioP2;P2;SDS_P1;SDS_P2;PMS_P1;PMS_P2;Temp;Humidity;BMP_temperature;BMP_pressure;BME280_temperature;BME280_humidity;BME280_pressure;Samples;Min_cycle;Max_cycle;Signal;HPM_P1;HPM_P2
2022/02/16 00:00:39;;;;;;;4.28;1.25;;;9.60;95.70;;;;;;5076680;28;20057;-65
2022/02/16 00:03:08;;;;;;;5.47;2.63;;;9.60;95.70;;;;;;5093487;28;20080;-65
2022/02/16 00:05:37;;;;;;;13.50;3.00;;;9.60;95.70;;;;;;5090524;28;20119;-65
2022/02/16 00:08:04;;;;;;;2.28;1.02;;;9.60;95.80;;;;;;5084647;28;20069;-65
2022/02/16 00:10:30;;;;;;;4.28;1.55;;;9.60;95.80;;;;;;5094473;28;20067;-65
2022/02/16 00:12:56;;;;;;;14.40;1.80;;;9.60;95.80;;;;;;5094356;28;20054;-65
2022/02/16 00:15:23;;;;;;;2.60;1.42;;;9.60;95.80;;;;;;5093711;28;20028;-65
2022/02/16 00:17:51;;;;;;;1.83;0.98;;;9.60;95.80;;;;;;5094591;28;20040;-65
2022/02/16 00:20:20;;;;;;;1.05;0.95;;;9.60;95.80;;;;;;5088575;28;20472;-65
2022/02/16 00:22:46;;;;;;;1.60;1.02;;;9.60;95.70;;;;;;5086899;28;20024;-65
2022/02/16 00:25:11;;;;;;;4.15;1.35;;;9.60;95.70;;;;;;5087083;28;20392;-65
2022/02/16 00:27:38;;;;;;;2.45;1.30;;;9.60;95.60;;;;;;5074415;28;20031;-66
2022/02/16 00:30:05;;;;;;;7.72;2.55;;;9.60;95.60;;;;;;5093530;28;20052;-66
2022/02/16 00:32:31;;;;;;;2.63;1.75;;;9.60;95.60;;;;;;5092557;28;20020;-66
2022/02/16 00:34:56;;;;;;;4.45;2.10;;;9.60;95.60;;;;;;5064001;28;20383;-66
2022/02/16 00:37:22;;;;;;;10.77;2.15;;;9.60;95.60;;;;;;5077913;28;20043;-66
2022/02/16 00:39:49;;;;;;;4.13;1.67;;;9.60;95.60;;;;;;5073901;28;20107;-66
2022/02/16 00:42:15;;;;;;;2.95;1.65;;;9.60;95.60;;;;;;5068766;28;20187;-65
2022/02/16 00:44:41;;;;;;;0.55;0.55;;;9.60;95.60;;;;;;5082452;28;20089;-66
2022/02/16 00:47:07;;;;;;;4.95;2.38;;;9.60;95.60;;;;;;5093451;28;20028;-66
2022/02/16 00:49:34;;;;;;;3.88;1.50;;;9.60;95.60;;;;;;5083093;28;20078;-66
2022/02/16 00:52:01;;;;;;;2.50;1.50;;;9.70;95.60;;;;;;5058934;28;20028;-66
2022/02/16 00:54:30;;;;;;;7.90;2.28;;;9.60;95.60;;;;;;5093237;28;20024;-66
2022/02/16 00:57:00;;;;;;;5.05;2.08;;;9.70;95.60;;;;;;5092933;28;20417;-65
2022/02/16 00:59:30;;;;;;;2.25;2.05;;;9.70;95.50;;;;;;5093215;28;20482;-65
2022/02/16 01:01:58;;;;;;;6.18;1.98;;;9.70;95.50;;;;;;5079771;28;20027;-65
2022/02/16 01:04:24;;;;;;;3.40;1.50;;;9.70;95.40;;;;;;5092811;28;20059;-66
2022/02/16 01:06:55;;;;;;;9.02;3.25;;;9.70;95.40;;;;;;5062016;28;20143;-65
2022/02/16 01:09:21;;;;;;;4.15;1.88;;;9.70;95.40;;;;;;5066829;28;20464;-66
2022/02/16 01:11:49;;;;;;;11.45;2.00;;;9.70;95.40;;;;;;5069518;28;20024;-66
2022/02/16 01:14:15;;;;;;;6.30;2.70;;;9.70;95.40;;;;;;5075384;28;20024;-66
2022/02/16 01:16:57;;;;;;;1.55;1.05;;;9.80;95.40;;;;;;5074948;28;20031;-66
2022/02/16 01:19:44;;;;;;;11.05;3.47;;;9.80;95.30;;;;;;5060850;28;20032;-66
2022/02/16 01:22:09;;;;;;;2.08;1.35;;;9.70;95.30;;;;;;5066408;28;20111;-66
2022/02/16 01:24:35;;;;;;;3.70;1.08;;;9.80;95.30;;;;;;5069346;28;20040;-66
2022/02/16 01:27:04;;;;;;;11.27;3.20;;;9.80;95.20;;;;;;5066079;28;20388;-66
2022/02/16 01:29:30;;;;;;;2.88;1.23;;;9.80;95.20;;;;;;5057580;28;20024;-66
2022/02/16 01:32:09;;;;;;;15.15;2.78;;;9.90;95.20;;;;;;5071000;28;20475;-66
2022/02/16 01:34:35;;;;;;;4.15;1.88;;;9.90;95.10;;;;;;5073624;28;20086;-66
2022/02/16 01:37:02;;;;;;;7.63;2.75;;;9.90;95.10;;;;;;5073895;28;20024;-66
2022/02/16 01:39:29;;;;;;;5.90;2.17;;;9.90;95.00;;;;;;5073832;28;20031;-66
2022/02/16 01:41:55;;;;;;;6.97;1.85;;;9.90;95.00;;;;;;5092839;28;20129;-66
2022/02/16 01:44:23;;;;;;;3.33;1.50;;;9.90;95.00;;;;;;5074615;28;20127;-66
2022/02/16 01:47:00;;;;;;;5.38;1.45;;;9.90;94.90;;;;;;5057667;28;20020;-66
2022/02/16 01:49:28;;;;;;;4.63;2.17;;;9.90;94.90;;;;;;5074771;28;20028;-66
2022/02/16 01:51:55;;;;;;;8.10;1.77;;;9.90;94.90;;;;;;5073542;28;20103;-66
2022/02/16 01:54:26;;;;;;;4.03;1.60;;;9.90;94.90;;;;;;5073003;28;20024;-66
2022/02/16 01:56:53;;;;;;;7.35;1.52;;;9.80;94.90;;;;;;5069546;28;20017;-66
2022/02/16 01:59:24;;;;;;;3.78;1.50;;;9.90;94.90;;;;;;5054247;28;20572;-65
2022/02/16 02:02:13;;;;;;;7.72;1.40;;;9.90;94.90;;;;;;5048802;28;20060;-66
2022/02/16 02:04:41;;;;;;;5.28;2.15;;;9.90;94.90;;;;;;5069082;28;20036;-66
2022/02/16 02:07:10;;;;;;;2.10;1.20;;;9.80;94.90;;;;;;5060216;28;20032;-66
2022/02/16 02:09:36;;;;;;;6.20;1.80;;;9.80;94.90;;;;;;5092556;28;20032;-66
2022/02/16 02:12:02;;;;;;;6.85;2.25;;;9.80;95.00;;;;;;5107890;28;20023;-66
2022/02/16 02:14:32;;;;;;;6.28;2.53;;;9.80;95.00;;;;;;5063846;28;20468;-66
2022/02/16 02:17:05;;;;;;;5.15;1.48;;;9.80;95.10;;;;;;5071837;28;20025;-66
2022/02/16 02:19:31;;;;;;;6.30;1.92;;;9.80;95.10;;;;;;5074317;28;20468;-66
2022/02/16 02:22:03;;;;;;;1.77;1.30;;;9.70;95.10;;;;;;5092820;28;20107;-66
2022/02/16 02:24:29;;;;;;;3.05;1.80;;;9.70;95.40;;;;;;5078452;28;20028;-66
2022/02/16 02:26:56;;;;;;;13.88;2.38;;;9.80;95.10;;;;;;5078199;28;20551;-66
2022/02/16 02:29:21;;;;;;;10.88;2.97;;;9.70;95.10;;;;;;5077581;28;20056;-66
2022/02/16 02:31:57;;;;;;;5.82;2.20;;;9.80;95.20;;;;;;5066331;28;20115;-67
2022/02/16 02:34:27;;;;;;;4.53;1.92;;;9.80;95.20;;;;;;5078038;28;20032;-66
2022/02/16 02:36:55;;;;;;;7.20;2.10;;;9.80;95.20;;;;;;5093972;28;20024;-66
2022/02/16 02:39:21;;;;;;;12.25;2.47;;;9.80;95.10;;;;;;5108707;28;20023;-66
2022/02/16 02:41:48;;;;;;;7.32;2.53;;;9.80;95.10;;;;;;5083292;28;20114;-66
2022/02/16 02:44:13;;;;;;;9.07;1.77;;;9.80;95.10;;;;;;5064514;28;20127;-66
2022/02/16 02:46:42;;;;;;;3.10;2.13;;;9.80;95.00;;;;;;5085207;28;20099;-65
2022/02/16 02:49:09;;;;;;;3.28;1.42;;;9.90;95.00;;;;;;5075510;28;20114;-66
2022/02/16 02:51:38;;;;;;;5.55;1.52;;;9.80;95.00;;;;;;5090306;28;20027;-66
2022/02/16 02:54:04;;;;;;;4.50;1.38;;;9.80;95.00;;;;;;5089541;28;20096;-66
2022/02/16 02:56:38;;;;;;;7.75;1.90;;;9.80;95.00;;;;;;5080368;28;20395;-66
2022/02/16 02:59:03;;;;;;;6.82;1.48;;;9.80;95.00;;;;;;5076922;28;20028;-66
2022/02/16 03:01:33;;;;;;;12.57;1.65;;;9.90;95.00;;;;;;5058040;28;20044;-66
2022/02/16 03:03:58;;;;;;;11.90;2.20;;;9.80;95.00;;;;;;5067383;28;20047;-66
2022/02/16 03:06:27;;;;;;;16.08;1.52;;;9.80;95.00;;;;;;5081623;28;20028;-66
2022/02/16 03:08:53;;;;;;;8.32;1.77;;;9.80;95.00;;;;;;5077653;28;20031;-66
2022/02/16 03:11:19;;;;;;;2.17;0.93;;;9.80;95.00;;;;;;5098709;28;20438;-66
2022/02/16 03:13:48;;;;;;;9.27;1.67;;;9.90;95.00;;;;;;5077541;28;20055;-66
2022/02/16 03:16:36;;;;;;;10.18;1.75;;;9.90;95.00;;;;;;5077488;28;20479;-66
2022/02/16 03:19:03;;;;;;;6.85;1.35;;;9.90;95.00;;;;;;5073882;28;20028;-66
2022/02/16 03:21:28;;;;;;;13.25;2.20;;;9.90;95.00;;;;;;5057097;28;20023;-66
2022/02/16 03:23:55;;;;;;;14.88;2.42;;;9.90;95.00;;;;;;5082369;28;20028;-66
2022/02/16 03:26:21;;;;;;;12.82;2.67;;;10.00;94.90;;;;;;5066467;28;20021;-66
2022/02/16 03:28:47;;;;;;;10.02;2.30;;;10.10;94.90;;;;;;5073927;28;20024;-66
2022/02/16 03:31:17;;;;;;;2.67;1.80;;;10.00;94.80;;;;;;5065402;28;20036;-65
2022/02/16 03:33:46;;;;;;;12.07;2.25;;;10.10;94.80;;;;;;5073348;28;20049;-66
2022/02/16 03:36:13;;;;;;;7.40;2.35;;;10.10;94.70;;;;;;5077225;28;20024;-66
2022/02/16 03:38:39;;;;;;;7.70;1.63;;;10.10;94.60;;;;;;5074375;28;20036;-66
2022/02/16 03:41:06;;;;;;;11.30;2.58;;;10.10;94.60;;;;;;5076839;28;20542;-66
2022/02/16 03:43:32;;;;;;;7.88;2.92;;;10.10;94.60;;;;;;5069642;28;20826;-66
2022/02/16 03:45:58;;;;;;;13.35;3.80;;;10.10;94.50;;;;;;5082309;28;20051;-66
2022/02/16 03:48:28;;;;;;;14.25;3.40;;;10.20;94.60;;;;;;5076769;28;20070;-66
2022/02/16 03:50:54;;;;;;;7.10;2.55;;;10.20;94.60;;;;;;5093664;28;20036;-66
2022/02/16 03:53:26;;;;;;;7.60;3.17;;;10.20;94.60;;;;;;5075921;28;20066;-65
2022/02/16 03:55:55;;;;;;;10.20;3.65;;;10.20;94.60;;;;;;5076331;28;20577;-66
2022/02/16 03:58:21;;;;;;;11.65;3.58;;;10.20;94.60;;;;;;5099901;28;20067;-65
2022/02/16 04:00:47;;;;;;;19.27;5.38;;;10.20;94.60;;;;;;5072408;28;20504;-65
2022/02/16 04:03:12;;;;;;;9.45;4.20;;;10.30;94.60;;;;;;5066503;28;20028;-65
2022/02/16 04:05:41;;;;;;;9.82;3.55;;;10.20;94.60;;;;;;5090816;28;20112;-65
2022/02/16 04:08:09;;;;;;;14.73;5.18;;;10.30;94.60;;;;;;5055844;28;20075;-65
2022/02/16 04:10:35;;;;;;;12.82;4.57;;;10.30;94.60;;;;;;5060584;28;20032;-66
2022/02/16 04:13:00;;;;;;;8.50;3.78;;;10.30;94.60;;;;;;5094530;28;20032;-66
2022/02/16 04:15:30;;;;;;;9.00;4.97;;;10.40;94.60;;;;;;5062155;28;20054;-65
2022/02/16 04:18:03;;;;;;;12.63;5.57;;;10.50;94.50;;;;;;5063136;28;20435;-66
2022/02/16 04:20:29;;;;;;;14.90;6.40;;;10.50;94.50;;;;;;5062380;28;20036;-65
2022/02/16 04:22:55;;;;;;;5.75;4.03;;;10.50;94.50;;;;;;5075955;28;20028;-66
2022/02/16 04:25:22;;;;;;;12.75;6.60;;;10.50;94.40;;;;;;5076068;28;20032;-65
2022/02/16 04:27:48;;;;;;;15.88;5.97;;;10.50;94.40;;;;;;5093473;28;20024;-65
2022/02/16 04:30:15;;;;;;;8.90;5.32;;;10.60;94.40;;;;;;5076143;28;20020;-66
2022/02/16 04:32:41;;;;;;;13.07;6.57;;;10.50;94.30;;;;;;5060446;28;20032;-66
2022/02/16 04:35:08;;;;;;;11.02;4.22;;;10.60;94.30;;;;;;5064106;28;20035;-66
2022/02/16 04:37:34;;;;;;;12.48;5.53;;;10.60;94.10;;;;;;5062265;28;20028;-65
2022/02/16 04:40:00;;;;;;;11.32;3.63;;;10.60;94.10;;;;;;5074164;28;20482;-66
2022/02/16 04:42:27;;;;;;;12.38;6.07;;;10.60;94.00;;;;;;5093477;28;20035;-66
2022/02/16 04:44:52;;;;;;;5.70;2.97;;;10.60;94.10;;;;;;5079390;28;20036;-65
2022/02/16 04:47:21;;;;;;;8.45;4.15;;;10.60;94.00;;;;;;5083888;28;20024;-66
2022/02/16 04:49:47;;;;;;;5.28;3.53;;;10.50;94.00;;;;;;5061640;28;20133;-66
2022/02/16 04:52:13;;;;;;;5.88;3.53;;;10.50;94.10;;;;;;5075740;28;20062;-66
2022/02/16 04:54:40;;;;;;;3.58;2.13;;;10.50;94.40;;;;;;5074369;28;20036;-65
2022/02/16 04:57:06;;;;;;;10.30;2.97;;;10.40;94.20;;;;;;5079029;28;20019;-66
2022/02/16 04:59:40;;;;;;;5.05;3.00;;;10.50;94.30;;;;;;5055368;28;20059;-65
2022/02/16 05:02:06;;;;;;;2.17;1.73;;;10.40;94.30;;;;;;5056761;28;20028;-66
2022/02/16 05:04:32;;;;;;;4.32;2.80;;;10.40;94.30;;;;;;5074540;28;20059;-66
2022/02/16 05:06:58;;;;;;;6.18;3.22;;;10.40;94.40;;;;;;5075119;28;20058;-66
2022/02/16 05:09:24;;;;;;;8.00;3.78;;;10.40;94.40;;;;;;5093471;28;20055;-66
2022/02/16 05:11:50;;;;;;;1.30;1.20;;;10.30;94.50;;;;;;5074326;28;20082;-65
2022/02/16 05:14:17;;;;;;;5.88;3.38;;;10.30;94.50;;;;;;5075387;28;20024;-66
2022/02/16 05:16:47;;;;;;;9.05;4.53;;;10.30;94.60;;;;;;5074097;28;20441;-65
2022/02/16 05:19:14;;;;;;;2.92;1.95;;;10.30;94.80;;;;;;5093400;28;20032;-66
2022/02/16 05:21:41;;;;;;;7.75;3.50;;;10.30;94.80;;;;;;5056957;28;20016;-65
2022/02/16 05:24:12;;;;;;;4.10;2.97;;;10.30;94.90;;;;;;5066564;28;20036;-66
2022/02/16 05:26:41;;;;;;;6.95;3.40;;;10.30;94.90;;;;;;5068631;28;20029;-66
2022/02/16 05:29:07;;;;;;;4.60;2.95;;;10.20;95.00;;;;;;5055075;28;20052;-65
2022/02/16 05:31:36;;;;;;;2.70;2.17;;;10.20;95.10;;;;;;5074232;28;20024;-65
2022/02/16 05:34:03;;;;;;;5.40;3.58;;;10.20;95.20;;;;;;5079591;28;20047;-66
2022/02/16 05:36:31;;;;;;;6.60;3.72;;;10.20;95.30;;;;;;5071285;28;20028;-66
2022/02/16 05:38:57;;;;;;;4.28;3.08;;;10.10;95.40;;;;;;5091005;28;20076;-66
2022/02/16 05:41:23;;;;;;;4.38;2.72;;;10.20;95.50;;;;;;5092310;28;20020;-66
2022/02/16 05:43:50;;;;;;;6.18;4.07;;;10.10;95.60;;;;;;5074013;28;20036;-66
2022/02/16 05:46:17;;;;;;;1.85;1.45;;;10.10;95.70;;;;;;5077931;28;20032;-66
2022/02/16 05:48:44;;;;;;;3.53;2.35;;;10.10;95.70;;;;;;5066678;28;20085;-66
2022/02/16 05:51:10;;;;;;;6.28;3.65;;;10.10;95.80;;;;;;5069168;28;20028;-66
2022/02/16 05:53:36;;;;;;;5.47;3.60;;;10.10;95.80;;;;;;5065779;28;20539;-66
2022/02/16 05:56:01;;;;;;;4.60;2.58;;;10.10;95.80;;;;;;5074281;28;20032;-66
2022/02/16 05:58:32;;;;;;;4.18;2.60;;;10.20;95.90;;;;;;5076788;28;20413;-66
2022/02/16 06:01:00;;;;;;;3.65;2.58;;;10.10;95.90;;;;;;5067176;28;20069;-66
2022/02/16 06:03:34;;;;;;;3.15;2.55;;;10.20;96.00;;;;;;5074592;28;20032;-66
2022/02/16 06:05:59;;;;;;;2.65;2.20;;;10.20;96.00;;;;;;5073307;28;20032;-68
2022/02/16 06:08:26;;;;;;;1.65;1.15;;;10.20;96.00;;;;;;5069922;28;20067;-69
2022/02/16 06:10:53;;;;;;;3.33;2.63;;;10.20;96.00;;;;;;5071099;28;20428;-66
2022/02/16 06:13:20;;;;;;;2.65;1.90;;;10.20;96.00;;;;;;5073554;28;20059;-67
2022/02/16 06:15:45;;;;;;;1.45;1.15;;;10.20;96.00;;;;;;5092684;28;20047;-67
2022/02/16 06:18:11;;;;;;;7.80;2.88;;;10.20;96.00;;;;;;5091573;28;20377;-66
2022/02/16 06:20:37;;;;;;;2.28;1.38;;;10.30;96.00;;;;;;5066743;28;20052;-65
2022/02/16 06:23:03;;;;;;;6.18;3.08;;;10.30;96.00;;;;;;5054704;28;20035;-65
2022/02/16 06:25:29;;;;;;;1.95;1.63;;;10.40;96.00;;;;;;5065932;28;20044;-65
2022/02/16 06:27:55;;;;;;;2.90;1.40;;;10.30;96.00;;;;;;5069925;28;20028;-65
2022/02/16 06:30:21;;;;;;;1.98;1.63;;;10.30;96.00;;;;;;5090288;28;20080;-65
2022/02/16 06:32:55;;;;;;;5.45;1.98;;;10.30;96.30;;;;;;5070571;28;20030;-65
2022/02/16 06:35:26;;;;;;;3.30;1.73;;;10.30;96.30;;;;;;5072001;28;20067;-65
2022/02/16 06:37:51;;;;;;;4.43;2.95;;;10.30;96.10;;;;;;5092352;28;20033;-65
2022/02/16 06:40:18;;;;;;;4.35;2.80;;;10.30;96.10;;;;;;5067384;28;20047;-65
2022/02/16 06:42:48;;;;;;;3.30;2.50;;;10.30;96.20;;;;;;5067115;28;20115;-66
2022/02/16 06:45:16;;;;;;;1.92;1.55;;;10.30;96.30;;;;;;5081287;28;20032;-65
2022/02/16 06:47:44;;;;;;;2.63;2.15;;;10.30;96.40;;;;;;5097225;28;20016;-73
2022/02/16 06:50:11;;;;;;;7.47;2.13;;;10.30;96.40;;;;;;5064693;28;20025;-65
2022/02/16 06:52:39;;;;;;;3.83;2.95;;;10.30;96.50;;;;;;5069677;28;20020;-67
2022/02/16 06:55:06;;;;;;;4.82;2.45;;;10.30;96.50;;;;;;5059722;28;20068;-66
2022/02/16 06:57:33;;;;;;;3.85;1.85;;;10.30;96.60;;;;;;5074636;28;20027;-66
2022/02/16 07:00:08;;;;;;;3.60;1.98;;;10.30;96.60;;;;;;5060118;28;20052;-65
2022/02/16 07:02:45;;;;;;;5.03;2.72;;;10.30;96.70;;;;;;5072780;28;20492;-65
2022/02/16 07:05:12;;;;;;;2.38;1.88;;;10.30;96.70;;;;;;5064671;28;20036;-65
2022/02/16 07:07:38;;;;;;;2.92;2.00;;;10.30;96.80;;;;;;5066751;28;20027;-66
2022/02/16 07:10:05;;;;;;;2.17;1.77;;;10.30;96.90;;;;;;5083791;28;20032;-65
2022/02/16 07:12:31;;;;;;;3.53;2.15;;;10.30;97.00;;;;;;5073449;28;20029;-66
2022/02/16 07:14:56;;;;;;;3.15;1.85;;;10.30;97.00;;;;;;5067845;28;20035;-68
2022/02/16 07:17:26;;;;;;;2.00;1.48;;;10.30;97.10;;;;;;5090629;28;20476;-67
2022/02/16 07:19:52;;;;;;;3.47;2.20;;;10.30;97.10;;;;;;5068659;28;20077;-66
2022/02/16 07:22:24;;;;;;;3.08;2.30;;;10.30;97.20;;;;;;5077109;28;20027;-67
2022/02/16 07:24:49;;;;;;;3.22;1.23;;;10.30;97.20;;;;;;5076502;28;20040;-66
2022/02/16 07:27:18;;;;;;;2.35;2.13;;;10.20;97.30;;;;;;5077198;28;20027;-66
2022/02/16 07:29:47;;;;;;;3.13;1.90;;;10.20;97.40;;;;;;5076121;28;20044;-66
2022/02/16 07:32:13;;;;;;;3.83;2.33;;;10.30;97.50;;;;;;5094736;28;20042;-66
2022/02/16 07:34:41;;;;;;;2.60;1.95;;;10.20;97.50;;;;;;5076623;28;20483;-66
2022/02/16 07:37:07;;;;;;;2.30;1.83;;;10.30;97.60;;;;;;5077190;28;20111;-66
2022/02/16 07:39:34;;;;;;;2.03;1.67;;;10.30;97.80;;;;;;5074326;28;20119;-66
2022/02/16 07:42:01;;;;;;;2.30;1.70;;;10.30;97.80;;;;;;5077038;28;20554;-65
2022/02/16 07:44:48;;;;;;;2.15;1.60;;;10.20;97.90;;;;;;5079279;28;20027;-66
2022/02/16 07:47:24;;;;;;;2.65;1.92;;;10.20;98.00;;;;;;5084816;28;20028;-68
2022/02/16 07:49:52;;;;;;;2.38;1.95;;;10.20;98.20;;;;;;5076709;28;20031;-64
2022/02/16 07:52:50;;;;;;;2.75;1.90;;;10.20;98.30;;;;;;5093975;28;20489;-71
2022/02/16 07:55:26;;;;;;;2.30;1.88;;;10.10;98.40;;;;;;5075477;28;20078;-66
2022/02/16 07:57:53;;;;;;;2.40;1.55;;;10.20;98.60;;;;;;5074995;28;20024;-66
2022/02/16 08:00:19;;;;;;;3.05;1.95;;;10.10;98.80;;;;;;5073403;28;20044;-66
2022/02/16 08:02:56;;;;;;;1.92;1.70;;;10.00;99.00;;;;;;5074364;28;20058;-66
2022/02/16 08:05:24;;;;;;;1.52;1.38;;;10.00;99.30;;;;;;5065744;28;20104;-66
2022/02/16 08:07:50;;;;;;;1.63;1.50;;;10.00;99.50;;;;;;5074175;28;20028;-66
2022/02/16 08:10:16;;;;;;;2.10;1.40;;;10.00;99.60;;;;;;5074400;28;20034;-66
2022/02/16 08:12:47;;;;;;;1.45;1.35;;;10.00;99.70;;;;;;5070373;28;20020;-67
2022/02/16 08:15:13;;;;;;;1.80;1.25;;;10.00;99.80;;;;;;5074321;28;20024;-66
2022/02/16 08:17:41;;;;;;;1.73;1.40;;;10.10;99.90;;;;;;5071454;28;20472;-67
2022/02/16 08:20:10;;;;;;;1.38;1.27;;;10.00;99.90;;;;;;5091472;28;20020;-66
2022/02/16 08:22:50;;;;;;;1.23;1.00;;;10.00;99.90;;;;;;5074439;28;20446;-66
2022/02/16 08:25:18;;;;;;;0.90;0.90;;;10.10;99.90;;;;;;5075950;28;20036;-66
2022/02/16 08:27:59;;;;;;;1.10;0.93;;;10.10;99.90;;;;;;5062816;28;20032;-66
2022/02/16 08:30:25;;;;;;;1.10;1.10;;;10.20;99.90;;;;;;5061817;28;20595;-66
2022/02/16 08:32:52;;;;;;;1.08;0.93;;;10.20;99.90;;;;;;5063858;28;20063;-66
2022/02/16 08:35:30;;;;;;;1.05;0.95;;;10.20;99.90;;;;;;5062350;28;20523;-66
2022/02/16 08:37:57;;;;;;;1.02;1.02;;;10.20;99.90;;;;;;5093322;28;20035;-67
2022/02/16 08:40:22;;;;;;;1.23;1.02;;;10.30;99.90;;;;;;5085585;28;20460;-67
2022/02/16 08:42:48;;;;;;;0.82;0.82;;;10.30;99.90;;;;;;5087397;28;20039;-66
2022/02/16 08:45:14;;;;;;;1.00;1.00;;;10.30;99.90;;;;;;5101101;28;20051;-67
2022/02/16 08:47:40;;;;;;;0.80;0.80;;;10.30;99.90;;;;;;5098221;28;20054;-67
2022/02/16 08:50:06;;;;;;;0.88;0.88;;;10.40;99.90;;;;;;5094190;28;20032;-67
2022/02/16 08:52:32;;;;;;;0.82;0.82;;;10.40;99.90;;;;;;5090127;28;20079;-67
2022/02/16 08:54:58;;;;;;;1.25;0.80;;;10.40;99.90;;;;;;5066625;28;20024;-75
2022/02/16 08:57:24;;;;;;;0.80;0.68;;;10.40;99.90;;;;;;5085289;28;20420;-67
2022/02/16 08:59:50;;;;;;;0.70;0.70;;;10.50;99.90;;;;;;5081348;28;20246;-67
2022/02/16 09:02:16;;;;;;;0.60;0.60;;;10.50;99.90;;;;;;5092303;28;20032;-67
2022/02/16 09:04:43;;;;;;;0.75;0.60;;;10.50;99.90;;;;;;5092697;28;20431;-67
2022/02/16 09:09:52;;;;;;;1.10;0.80;;;10.50;99.90;;;;;;5092028;28;20069;-68
2022/02/16 09:12:18;;;;;;;3.45;1.30;;;10.50;99.90;;;;;;5089737;28;20016;-67
2022/02/16 09:14:43;;;;;;;1.60;1.33;;;10.50;99.90;;;;;;5091401;28;20597;-67
2022/02/16 09:17:09;;;;;;;2.65;1.60;;;10.50;99.90;;;;;;5090547;28;20028;-67
2022/02/16 09:19:35;;;;;;;2.75;1.80;;;10.50;99.90;;;;;;5091755;28;20540;-67
2022/02/16 09:22:02;;;;;;;4.07;2.25;;;10.50;99.90;;;;;;5088796;28;20090;-67
2022/02/16 09:24:27;;;;;;;4.65;2.22;;;10.50;99.90;;;;;;5087568;28;20050;-67
2022/02/16 09:26:53;;;;;;;7.78;3.17;;;10.50;99.90;;;;;;5092735;28;20028;-67
2022/02/16 09:29:20;;;;;;;4.25;2.45;;;10.60;99.90;;;;;;5073973;28;20027;-67
2022/02/16 09:31:48;;;;;;;11.10;2.80;;;10.60;99.90;;;;;;5083662;28;20438;-67
2022/02/16 09:34:17;;;;;;;7.20;2.45;;;10.60;99.90;;;;;;5091878;28;20054;-67
2022/02/16 09:36:43;;;;;;;9.32;2.30;;;10.70;99.90;;;;;;5092650;28;20041;-67
2022/02/16 09:39:32;;;;;;;6.38;2.38;;;10.70;99.90;;;;;;5090626;28;20089;-67
2022/02/16 09:41:59;;;;;;;8.55;2.72;;;10.70;99.90;;;;;;5080094;28;20417;-69
2022/02/16 09:44:37;;;;;;;11.20;2.53;;;10.70;99.90;;;;;;5092064;28;20036;-68
2022/02/16 09:47:05;;;;;;;10.30;2.78;;;10.70;99.90;;;;;;5103383;28;20066;-68
2022/02/16 09:49:33;;;;;;;11.15;2.95;;;10.80;99.90;;;;;;5089003;28;20033;-68
2022/02/16 09:52:00;;;;;;;15.60;3.03;;;10.80;99.90;;;;;;5082766;28;20380;-68
2022/02/16 09:54:27;;;;;;;9.95;3.00;;;10.80;99.90;;;;;;5087901;28;20025;-67
2022/02/16 09:56:52;;;;;;;17.98;3.05;;;10.80;99.90;;;;;;5085319;28;20028;-68
2022/02/16 09:59:18;;;;;;;9.90;3.00;;;10.90;99.90;;;;;;5091094;28;20028;-67
2022/02/16 10:01:53;;;;;;;11.57;2.63;;;10.90;99.90;;;;;;5091771;28;20064;-67
2022/02/16 10:04:19;;;;;;;8.60;2.10;;;10.90;99.90;;;;;;5091529;28;20135;-67
2022/02/16 10:06:44;;;;;;;13.98;2.88;;;11.00;99.90;;;;;;5091074;28;20539;-68
2022/02/16 10:09:27;;;;;;;11.15;2.38;;;11.10;99.90;;;;;;5091874;28;20046;-68
2022/02/16 10:12:04;;;;;;;8.40;2.60;;;11.10;99.90;;;;;;5095831;28;20115;-68
2022/02/16 10:14:32;;;;;;;9.75;2.15;;;11.20;99.90;;;;;;5091435;28;20055;-68
2022/02/16 10:17:17;;;;;;;4.50;2.15;;;11.20;99.90;;;;;;5086753;28;20024;-68
2022/02/16 10:19:55;;;;;;;9.15;1.95;;;11.30;99.90;;;;;;5091253;28;20032;-68
2022/02/16 10:22:30;;;;;;;12.23;2.33;;;11.30;99.90;;;;;;5081706;28;20024;-68
2022/02/16 10:25:32;;;;;;;5.63;1.80;;;11.40;99.90;;;;;;5091316;28;20040;-70
2022/02/16 10:28:18;;;;;;;9.30;2.30;;;11.40;99.90;;;;;;5091781;28;20031;-69
2022/02/16 10:31:02;;;;;;;8.90;2.58;;;11.40;99.90;;;;;;5078958;28;20032;-67
2022/02/16 10:33:34;;;;;;;13.55;3.00;;;11.50;99.90;;;;;;5090477;28;20085;-68
2022/02/16 10:36:04;;;;;;;9.20;2.22;;;11.50;99.90;;;;;;5092197;28;20028;-67
2022/02/16 10:38:51;;;;;;;7.20;2.88;;;11.50;99.90;;;;;;5091831;28;20032;-68
2022/02/16 10:41:17;;;;;;;9.55;2.40;;;11.50;99.90;;;;;;5078184;28;20024;-67
2022/02/16 10:43:45;;;;;;;8.60;2.47;;;11.60;99.90;;;;;;5094932;28;20036;-67
2022/02/16 10:46:27;;;;;;;8.63;2.38;;;11.60;99.90;;;;;;5107227;28;20049;-67
2022/02/16 10:49:26;;;;;;;13.00;2.97;;;11.60;99.90;;;;;;5095789;28;20031;-67
2022/02/16 10:52:10;;;;;;;9.18;2.75;;;11.70;99.90;;;;;;5052491;28;20040;-67
2022/02/16 10:54:38;;;;;;;8.02;2.33;;;11.70;99.90;;;;;;5094992;28;20040;-68
2022/02/16 10:57:04;;;;;;;8.07;1.90;;;11.70;99.90;;;;;;5100017;28;20027;-70
2022/02/16 10:59:31;;;;;;;8.00;2.42;;;11.70;99.90;;;;;;5094999;28;20064;-67
2022/02/16 11:02:05;;;;;;;11.30;2.35;;;11.80;99.90;;;;;;5092979;28;20035;-68
2022/02/16 11:04:33;;;;;;;9.23;2.05;;;11.80;99.90;;;;;;5084378;28;20044;-68
2022/02/16 11:07:00;;;;;;;7.28;1.80;;;11.80;99.90;;;;;;5095686;28;20039;-68
2022/02/16 11:09:32;;;;;;;7.55;2.83;;;11.90;99.90;;;;;;5091694;28;20032;-68
2022/02/16 11:11:58;;;;;;;7.95;2.83;;;11.90;99.90;;;;;;5082646;28;20028;-68
2022/02/16 11:14:31;;;;;;;13.05;2.80;;;11.90;99.90;;;;;;5095476;28;20131;-68
2022/02/16 11:16:58;;;;;;;9.60;2.38;;;12.00;99.90;;;;;;5094586;28;20031;-68
2022/02/16 11:19:27;;;;;;;11.77;2.70;;;12.00;99.90;;;;;;5095431;28;20047;-68
2022/02/16 11:22:10;;;;;;;10.60;2.25;;;12.00;99.90;;;;;;5095636;28;20040;-68
2022/02/16 11:24:43;;;;;;;12.05;2.00;;;12.10;99.90;;;;;;5094882;28;20387;-67
2022/02/16 11:27:37;;;;;;;9.37;1.97;;;12.10;99.90;;;;;;5093211;28;20426;-68
2022/02/16 11:30:09;;;;;;;6.90;2.40;;;12.10;99.90;;;;;;5087655;28;20032;-67
2022/02/16 11:32:37;;;;;;;7.00;2.00;;;12.20;99.90;;;;;;5085216;28;20032;-68
2022/02/16 11:35:17;;;;;;;8.90;2.35;;;12.20;99.90;;;;;;5088405;28;20024;-68
2022/02/16 11:37:48;;;;;;;7.65;1.90;;;12.20;99.90;;;;;;5087032;28;20034;-71
2022/02/16 11:40:15;;;;;;;10.90;2.60;;;12.20;99.90;;;;;;5094687;28;20032;-68
2022/02/16 11:42:48;;;;;;;6.35;2.42;;;12.20;99.90;;;;;;5094848;28;20060;-70
2022/02/16 11:45:36;;;;;;;11.23;2.50;;;12.20;99.90;;;;;;5094532;28;20032;-70
2022/02/16 11:48:01;;;;;;;10.27;2.45;;;12.20;99.90;;;;;;5093789;28;20102;-69
2022/02/16 11:50:27;;;;;;;8.40;2.53;;;12.20;99.90;;;;;;5092692;28;20048;-68
2022/02/16 11:52:59;;;;;;;6.85;2.25;;;12.20;99.90;;;;;;5087971;28;20024;-68
2022/02/16 11:55:29;;;;;;;8.70;2.50;;;12.20;99.90;;;;;;5087874;28;20077;-68
2022/02/16 11:58:01;;;;;;;9.25;2.33;;;12.20;99.90;;;;;;5089030;28;20031;-67
2022/02/16 12:00:36;;;;;;;15.10;2.50;;;12.20;99.90;;;;;;5076759;28;20127;-69
2022/02/16 12:03:05;;;;;;;7.03;2.50;;;12.30;99.90;;;;;;5094914;28;20020;-70
2022/02/16 12:06:08;;;;;;;9.52;2.72;;;12.20;99.90;;;;;;5080183;28;20047;-68
2022/02/16 12:08:51;;;;;;;11.95;2.35;;;12.30;99.90;;;;;;5078511;28;20086;-68
2022/02/16 12:11:25;;;;;;;5.82;2.10;;;12.30;99.90;;;;;;5074569;28;20036;-68
2022/02/16 12:14:04;;;;;;;8.27;2.05;;;12.30;99.90;;;;;;5086012;28;20032;-68
2022/02/16 12:16:45;;;;;;;10.80;2.60;;;12.30;99.90;;;;;;5090822;28;20044;-68
2022/02/16 12:19:15;;;;;;;8.43;2.47;;;12.30;99.90;;;;;;5093063;28;20024;-67
2022/02/16 12:21:44;;;;;;;7.85;2.58;;;12.30;99.90;;;;;;5090783;28;20065;-69
2022/02/16 12:24:14;;;;;;;7.20;2.08;;;12.40;99.90;;;;;;5093371;28;20040;-67
2022/02/16 12:26:44;;;;;;;9.98;2.42;;;12.40;99.90;;;;;;5090504;28;20036;-67
2022/02/16 12:29:18;;;;;;;13.38;2.80;;;12.40;99.90;;;;;;5089191;28;20147;-67
2022/02/16 12:31:57;;;;;;;8.20;2.22;;;12.40;99.90;;;;;;5089924;28;20028;-68
2022/02/16 12:34:26;;;;;;;11.52;2.15;;;12.50;99.90;;;;;;5092893;28;20031;-67
2022/02/16 12:36:54;;;;;;;4.97;1.70;;;12.50;99.90;;;;;;5090455;28;20036;-67
2022/02/16 12:39:20;;;;;;;10.05;2.95;;;12.50;99.90;;;;;;5092860;28;20522;-67
2022/02/16 12:41:49;;;;;;;8.23;2.00;;;12.60;99.90;;;;;;5093268;28;20032;-67
2022/02/16 12:44:28;;;;;;;9.52;2.47;;;12.60;99.90;;;;;;5094313;28;20032;-67
2022/02/16 12:46:54;;;;;;;13.20;2.50;;;12.60;99.90;;;;;;5082354;28;20081;-68
2022/02/16 12:49:22;;;;;;;11.18;2.88;;;12.60;99.90;;;;;;5093600;28;20111;-67
2022/02/16 12:51:57;;;;;;;12.18;3.20;;;12.60;99.90;;;;;;5080772;28;20054;-67
2022/02/16 12:54:30;;;;;;;4.95;1.70;;;12.60;99.90;;;;;;5092708;28;20441;-67
2022/02/16 12:57:03;;;;;;;8.80;2.38;;;12.60;99.90;;;;;;5093305;28;20467;-66
2022/02/16 12:59:30;;;;;;;;;;;12.60;99.90;;;;;;5090579;28;20101;-66
2022/02/16 13:01:59;;;;;;;13.98;3.28;;;12.70;99.90;;;;;;5091858;28;19908;-66